Time,TemperatureF,DewpointF,PressureIn,WindDirection,WindDirectionDegrees,WindSpeedMPH,WindSpeedGustMPH,Humidity,HourlyPrecipIn,Conditions,Clouds,dailyrainin,SoftwareType,DateUTC
2013-02-07 00:01:00,37.0,24.0,-100.00,NNE,14,9.0,10.0,60,-99.99,,,-99.99,,2013-02-07 00:01:00,
2013-02-07 00:11:00,37.0,24.0,-100.00,NNE,14,9.0,10.0,60,-99.99,,,-99.99,,2013-02-07 00:11:00,
2013-02-07 00:21:00,36.0,24.0,-100.00,NNE,26,11.0,12.0,61,-99.99,,,-99.99,,2013-02-07 00:21:00,
2013-02-07 00:31:00,35.0,24.0,-100.00,NNE,27,10.0,12.0,62,-99.99,,,-99.99,,2013-02-07 00:31:00,
2013-02-07 00:41:00,35.0,24.0,-100.00,NNE,32,9.0,12.0,63,-99.99,,,-99.99,,2013-02-07 00:41:00,
2013-02-07 00:51:00,35.0,23.0,-100.00,NE,39,10.0,12.0,62,-99.99,,,-99.99,,2013-02-07 00:51:00,
2013-02-07 01:01:00,34.0,23.0,-100.00,NNE,30,8.0,9.0,63,-99.99,,,-99.99,,2013-02-07 01:01:00,
2013-02-07 01:11:00,34.0,23.0,-100.00,NNE,14,10.0,11.0,63,-99.99,,,-99.99,,2013-02-07 01:11:00,
2013-02-07 01:21:00,33.0,23.0,-100.00,NE,37,10.0,11.0,65,-99.99,,,-99.99,,2013-02-07 01:21:00,
2013-02-07 01:31:00,33.0,23.0,-100.00,NE,39,9.0,11.0,65,-99.99,,,-99.99,,2013-02-07 01:31:00,
2013-02-07 01:41:00,34.0,23.0,-100.00,NE,36,11.0,14.0,63,-99.99,,,-99.99,,2013-02-07 01:41:00,
2013-02-07 01:52:00,34.0,23.0,-100.00,NE,36,11.0,14.0,63,-99.99,,,-99.99,,2013-02-07 01:52:00,
2013-02-07 02:01:00,33.0,23.0,-100.00,NE,41,9.0,12.0,65,-99.99,,,-99.99,,2013-02-07 02:01:00,
2013-02-07 02:11:00,33.0,23.0,-100.00,NE,39,7.0,9.0,65,-99.99,,,-99.99,,2013-02-07 02:11:00,
2013-02-07 02:21:00,33.0,23.0,-100.00,NNE,33,6.0,8.0,65,-99.99,,,-99.99,,2013-02-07 02:21:00,
2013-02-07 02:31:00,32.0,22.0,-100.00,NNE,23,7.0,10.0,65,-99.99,,,-99.99,,2013-02-07 02:31:00,
2013-02-07 02:41:00,32.0,22.0,-100.00,NNE,23,7.0,10.0,65,-99.99,,,-99.99,,2013-02-07 02:41:00,
2013-02-07 02:51:00,32.0,22.0,-100.00,NNE,23,7.0,10.0,65,-99.99,,,-99.99,,2013-02-07 02:51:00,
2013-02-07 03:01:00,29.0,22.0,-100.00,NNE,16,6.0,6.0,74,-99.99,,,-99.99,,2013-02-07 03:01:00,
2013-02-07 03:11:00,29.0,22.0,-100.00,NNE,15,6.0,6.0,75,-99.99,,,-99.99,,2013-02-07 03:11:00,
2013-02-07 03:21:00,29.0,22.0,-100.00,NNE,15,6.0,6.0,75,-99.99,,,-99.99,,2013-02-07 03:21:00,
2013-02-07 03:31:00,29.0,22.0,-100.00,NNE,16,6.0,6.0,72,-99.99,,,-99.99,,2013-02-07 03:31:00,
2013-02-07 03:41:00,29.0,21.0,-100.00,North,10,7.0,7.0,72,-99.99,,,-99.99,,2013-02-07 03:41:00,
2013-02-07 03:51:00,29.0,21.0,-100.00,NNE,26,6.0,7.0,72,-99.99,,,-99.99,,2013-02-07 03:51:00,
2013-02-07 04:01:00,29.0,21.0,-100.00,NNE,23,6.0,6.0,71,-99.99,,,-99.99,,2013-02-07 04:01:00,
2013-02-07 04:11:00,29.0,21.0,-100.00,NNE,29,6.0,6.0,71,-99.99,,,-99.99,,2013-02-07 04:11:00,
2013-02-07 04:21:00,29.0,21.0,-100.00,NNE,29,6.0,6.0,71,-99.99,,,-99.99,,2013-02-07 04:21:00,
2013-02-07 04:31:00,29.0,21.0,-100.00,NE,40,6.0,7.0,70,-99.99,,,-99.99,,2013-02-07 04:31:00,
2013-02-07 04:41:00,29.0,21.0,-100.00,NE,40,6.0,7.0,70,-99.99,,,-99.99,,2013-02-07 04:41:00,
2013-02-07 04:52:00,27.0,19.0,-100.00,North,351,6.0,6.0,71,-99.99,,,-99.99,,2013-02-07 04:52:00,
2013-02-07 05:01:00,27.0,20.0,-100.00,North,10,6.0,6.0,72,-99.99,,,-99.99,,2013-02-07 05:01:00,
2013-02-07 05:11:00,28.0,20.0,-100.00,NNE,13,6.0,6.0,71,-99.99,,,-99.99,,2013-02-07 05:11:00,
2013-02-07 05:21:00,28.0,20.0,-100.00,North,359,5.0,5.0,71,-99.99,,,-99.99,,2013-02-07 05:21:00,
2013-02-07 05:32:00,28.0,20.0,-100.00,NNE,18,4.0,5.0,71,-99.99,,,-99.99,,2013-02-07 05:32:00,
2013-02-07 05:42:00,28.0,20.0,-100.00,North,0,4.0,4.0,71,-99.99,,,-99.99,,2013-02-07 05:42:00,
2013-02-07 05:52:00,28.0,21.0,-100.00,NNE,33,2.0,3.0,73,-99.99,,,-99.99,,2013-02-07 05:52:00,
2013-02-07 06:01:00,29.0,21.0,-100.00,ENE,75,3.0,5.0,74,-99.99,,,-99.99,,2013-02-07 06:01:00,
2013-02-07 06:11:00,29.0,21.0,-100.00,ENE,75,3.0,5.0,74,-99.99,,,-99.99,,2013-02-07 06:11:00,
2013-02-07 06:22:00,29.0,21.0,-100.00,ENE,75,3.0,5.0,74,-99.99,,,-99.99,,2013-02-07 06:22:00,
2013-02-07 06:31:00,29.0,21.0,-100.00,NE,47,4.0,5.0,71,-99.99,,,-99.99,,2013-02-07 06:31:00,
2013-02-07 06:42:00,28.0,21.0,-100.00,NNE,21,4.0,4.0,72,-99.99,,,-99.99,,2013-02-07 06:42:00,
2013-02-07 06:52:00,28.0,21.0,-100.00,NNE,20,4.0,4.0,73,-99.99,,,-99.99,,2013-02-07 06:52:00,
2013-02-07 07:01:00,29.0,21.0,-100.00,NNE,29,3.0,3.0,73,-99.99,,,-99.99,,2013-02-07 07:01:00,
2013-02-07 07:11:00,26.0,18.0,-100.00,SE,135,1.0,2.0,72,-99.99,,,-99.99,,2013-02-07 07:11:00,
2013-02-07 07:21:00,26.0,19.0,-100.00,NNE,16,1.0,2.0,75,-99.99,,,-99.99,,2013-02-07 07:21:00,
2013-02-07 07:31:00,24.0,17.0,-100.00,SE,134,2.0,3.0,72,-99.99,,,-99.99,,2013-02-07 07:31:00,
2013-02-07 07:41:00,24.0,17.0,-100.00,ESE,118,1.0,3.0,72,-99.99,,,-99.99,,2013-02-07 07:41:00,
2013-02-07 07:52:00,23.0,14.0,-100.00,SSE,155,2.0,3.0,67,-99.99,,,-99.99,,2013-02-07 07:52:00,
2013-02-07 08:01:00,20.0,13.0,-100.00,SE,143,3.0,5.0,73,-99.99,,,-99.99,,2013-02-07 08:01:00,
2013-02-07 08:11:00,20.0,16.0,-100.00,SE,144,6.0,8.0,81,-99.99,,,-99.99,,2013-02-07 08:11:00,
2013-02-07 08:21:00,20.0,16.0,-100.00,SE,124,4.0,6.0,83,-99.99,,,-99.99,,2013-02-07 08:21:00,
2013-02-07 08:31:00,20.0,16.0,-100.00,SE,132,3.0,4.0,85,-99.99,,,-99.99,,2013-02-07 08:31:00,
2013-02-07 08:41:00,20.0,16.0,-100.00,ESE,119,4.0,5.0,83,-99.99,,,-99.99,,2013-02-07 08:41:00,
2013-02-07 08:52:00,20.0,16.0,-100.00,ESE,119,4.0,5.0,83,-99.99,,,-99.99,,2013-02-07 08:52:00,
2013-02-07 09:01:00,20.0,16.0,-100.00,ESE,119,4.0,5.0,83,-99.99,,,-99.99,,2013-02-07 09:01:00,
2013-02-07 09:11:00,24.0,19.0,-100.00,SE,143,5.0,5.0,81,-99.99,,,-99.99,,2013-02-07 09:11:00,
2013-02-07 09:21:00,24.0,19.0,-100.00,SE,143,5.0,5.0,81,-99.99,,,-99.99,,2013-02-07 09:21:00,
2013-02-07 09:31:00,24.0,19.0,-100.00,SE,143,5.0,5.0,81,-99.99,,,-99.99,,2013-02-07 09:31:00,
2013-02-07 09:41:00,18.0,14.0,-100.00,South,181,5.0,6.0,81,-99.99,,,-99.99,,2013-02-07 09:41:00,
2013-02-07 09:51:00,17.0,13.0,-100.00,South,176,4.0,6.0,84,-99.99,,,-99.99,,2013-02-07 09:51:00,
2013-02-07 10:01:00,16.0,13.0,-100.00,SSE,168,3.0,3.0,88,-99.99,,,-99.99,,2013-02-07 10:01:00,
2013-02-07 10:11:00,21.0,18.0,-100.00,SSE,147,7.0,7.0,89,-99.99,,,-99.99,,2013-02-07 10:11:00,
2013-02-07 10:21:00,21.0,18.0,-100.00,SSE,147,7.0,7.0,89,-99.99,,,-99.99,,2013-02-07 10:21:00,
2013-02-07 10:31:00,21.0,18.0,-100.00,SE,136,5.0,5.0,84,-99.99,,,-99.99,,2013-02-07 10:31:00,
2013-02-07 10:41:00,21.0,18.0,-100.00,SE,136,5.0,5.0,84,-99.99,,,-99.99,,2013-02-07 10:41:00,
2013-02-07 10:51:00,21.0,16.0,-100.00,SE,126,4.0,4.0,81,-99.99,,,-99.99,,2013-02-07 10:51:00,
2013-02-07 11:01:00,18.0,14.0,-100.00,SSE,155,2.0,3.0,84,-99.99,,,-99.99,,2013-02-07 11:01:00,
2013-02-07 11:11:00,18.0,14.0,-100.00,SSE,155,2.0,3.0,84,-99.99,,,-99.99,,2013-02-07 11:11:00,
2013-02-07 11:22:00,15.0,12.0,-100.00,SE,136,1.0,2.0,86,-99.99,,,-99.99,,2013-02-07 11:22:00,
2013-02-07 11:32:00,16.0,13.0,-100.00,South,175,2.0,3.0,88,-99.99,,,-99.99,,2013-02-07 11:32:00,
2013-02-07 11:43:00,17.0,15.0,-100.00,SSE,148,2.0,3.0,90,-99.99,,,-99.99,,2013-02-07 11:43:00,
2013-02-07 11:52:00,17.0,14.0,-100.00,South,187,2.0,4.0,89,-99.99,,,-99.99,,2013-02-07 11:52:00,
2013-02-07 12:01:00,15.0,13.0,-100.00,ESE,112,0.0,1.0,90,-99.99,,,-99.99,,2013-02-07 12:01:00,
2013-02-07 12:11:00,17.0,15.0,-100.00,SE,145,2.0,2.0,91,-99.99,,,-99.99,,2013-02-07 12:11:00,
2013-02-07 12:21:00,18.0,15.0,-100.00,SSE,160,4.0,4.0,90,-99.99,,,-99.99,,2013-02-07 12:21:00,
2013-02-07 12:32:00,18.0,15.0,-100.00,SSE,158,3.0,4.0,89,-99.99,,,-99.99,,2013-02-07 12:32:00,
2013-02-07 12:41:00,18.0,15.0,-100.00,SSE,166,3.0,4.0,89,-99.99,,,-99.99,,2013-02-07 12:41:00,
2013-02-07 12:52:00,16.0,13.0,-100.00,South,175,4.0,4.0,88,-99.99,,,-99.99,,2013-02-07 12:52:00,
2013-02-07 13:02:00,14.0,11.0,-100.00,SE,135,2.0,2.0,88,-99.99,,,-99.99,,2013-02-07 13:02:00,
2013-02-07 13:11:00,14.0,11.0,-100.00,South,172,5.0,6.0,90,-99.99,,,-99.99,,2013-02-07 13:11:00,
2013-02-07 13:21:00,13.0,11.0,-100.00,South,173,6.0,8.0,90,-99.99,,,-99.99,,2013-02-07 13:21:00,
2013-02-07 13:31:00,13.0,11.0,-100.00,South,182,7.0,8.0,91,-99.99,,,-99.99,,2013-02-07 13:31:00,
2013-02-07 13:41:00,13.0,10.0,-100.00,South,179,3.0,5.0,89,-99.99,,,-99.99,,2013-02-07 13:41:00,
2013-02-07 13:51:00,13.0,10.0,-100.00,South,179,3.0,5.0,89,-99.99,,,-99.99,,2013-02-07 13:51:00,
2013-02-07 14:01:00,10.0,6.0,-100.00,South,172,2.0,5.0,86,-99.99,,,-99.99,,2013-02-07 14:01:00,
2013-02-07 14:11:00,10.0,6.0,-100.00,South,172,2.0,5.0,86,-99.99,,,-99.99,,2013-02-07 14:11:00,
2013-02-07 14:21:00,9.0,6.0,-100.00,South,181,2.0,4.0,88,-99.99,,,-99.99,,2013-02-07 14:21:00,
2013-02-07 14:31:00,13.0,10.0,-100.00,South,178,8.0,9.0,89,-99.99,,,-99.99,,2013-02-07 14:31:00,
2013-02-07 14:41:00,16.0,14.0,-100.00,SSE,154,9.0,10.0,92,-99.99,,,-99.99,,2013-02-07 14:41:00,
2013-02-07 14:52:00,17.0,15.0,-100.00,SE,139,8.0,9.0,91,-99.99,,,-99.99,,2013-02-07 14:52:00,
2013-02-07 15:01:00,18.0,15.0,-100.00,SE,143,6.0,11.0,88,-99.99,,,-99.99,,2013-02-07 15:01:00,
2013-02-07 15:11:00,18.0,15.0,-100.00,SE,143,6.0,11.0,88,-99.99,,,-99.99,,2013-02-07 15:11:00,
2013-02-07 15:21:00,18.0,16.0,-100.00,SSE,152,9.0,10.0,91,-99.99,,,-99.99,,2013-02-07 15:21:00,
2013-02-07 15:31:00,18.0,15.0,-100.00,SSE,153,7.0,8.0,86,-99.99,,,-99.99,,2013-02-07 15:31:00,
2013-02-07 15:41:00,19.0,15.0,-100.00,SE,142,7.0,8.0,83,-99.99,,,-99.99,,2013-02-07 15:41:00,
2013-02-07 15:52:00,18.0,11.0,-100.00,South,188,6.0,8.0,75,-99.99,,,-99.99,,2013-02-07 15:52:00,
2013-02-07 16:01:00,16.0,11.0,-100.00,South,184,6.0,7.0,82,-99.99,,,-99.99,,2013-02-07 16:01:00,
2013-02-07 16:11:00,16.0,11.0,-100.00,South,184,6.0,7.0,82,-99.99,,,-99.99,,2013-02-07 16:11:00,
2013-02-07 16:21:00,17.0,13.0,-100.00,South,170,5.0,6.0,83,-99.99,,,-99.99,,2013-02-07 16:21:00,
2013-02-07 16:31:00,19.0,11.0,-100.00,SSW,193,5.0,6.0,70,-99.99,,,-99.99,,2013-02-07 16:31:00,
2013-02-07 16:41:00,17.0,12.0,-100.00,South,175,5.0,6.0,78,-99.99,,,-99.99,,2013-02-07 16:41:00,
2013-02-07 16:52:00,18.0,13.0,-100.00,SSE,166,3.0,4.0,78,-99.99,,,-99.99,,2013-02-07 16:52:00,
2013-02-07 17:01:00,19.0,14.0,-100.00,SE,145,4.0,4.0,77,-99.99,,,-99.99,,2013-02-07 17:01:00,
2013-02-07 17:11:00,25.0,16.0,-100.00,SSE,166,7.0,8.0,67,-99.99,,,-99.99,,2013-02-07 17:11:00,
2013-02-07 17:21:00,26.0,15.0,-100.00,SSE,153,6.0,7.0,64,-99.99,,,-99.99,,2013-02-07 17:21:00,
2013-02-07 17:31:00,28.0,16.0,-100.00,SSE,155,5.0,6.0,61,-99.99,,,-99.99,,2013-02-07 17:31:00,
2013-02-07 17:41:00,28.0,16.0,-100.00,SSE,155,5.0,6.0,61,-99.99,,,-99.99,,2013-02-07 17:41:00,
2013-02-07 17:52:00,22.0,14.0,-100.00,South,190,7.0,9.0,70,-99.99,,,-99.99,,2013-02-07 17:52:00,
2013-02-07 18:01:00,22.0,14.0,-100.00,South,190,7.0,9.0,70,-99.99,,,-99.99,,2013-02-07 18:01:00,
2013-02-07 18:11:00,25.0,16.0,-100.00,South,169,5.0,6.0,70,-99.99,,,-99.99,,2013-02-07 18:11:00,
2013-02-07 18:22:00,30.0,17.0,-100.00,SSE,156,7.0,8.0,55,-99.99,,,-99.99,,2013-02-07 18:22:00,
2013-02-07 18:31:00,30.0,17.0,-100.00,SSE,156,7.0,8.0,55,-99.99,,,-99.99,,2013-02-07 18:31:00,
2013-02-07 18:41:00,31.0,17.0,-100.00,SSE,158,6.0,6.0,55,-99.99,,,-99.99,,2013-02-07 18:41:00,
2013-02-07 18:51:00,31.0,17.0,-100.00,SSE,158,6.0,6.0,55,-99.99,,,-99.99,,2013-02-07 18:51:00,
2013-02-07 19:01:00,34.0,17.0,-100.00,South,173,3.0,6.0,48,-99.99,,,-99.99,,2013-02-07 19:01:00,
2013-02-07 19:11:00,37.0,16.0,-100.00,SSE,164,2.0,3.0,41,-99.99,,,-99.99,,2013-02-07 19:11:00,
2013-02-07 19:21:00,37.0,17.0,-100.00,South,190,5.0,10.0,44,-99.99,,,-99.99,,2013-02-07 19:21:00,
2013-02-07 19:31:00,29.0,18.0,-100.00,South,184,9.0,11.0,62,-99.99,,,-99.99,,2013-02-07 19:31:00,
2013-02-07 19:41:00,29.0,18.0,-100.00,South,184,9.0,11.0,62,-99.99,,,-99.99,,2013-02-07 19:41:00,
2013-02-07 19:51:00,36.0,18.0,-100.00,SSE,152,5.0,7.0,47,-99.99,,,-99.99,,2013-02-07 19:51:00,
2013-02-07 20:01:00,40.0,12.0,-100.00,SSE,162,5.0,8.0,31,-99.99,,,-99.99,,2013-02-07 20:01:00,
2013-02-07 20:11:00,39.0,17.0,-100.00,SSW,193,5.0,7.0,40,-99.99,,,-99.99,,2013-02-07 20:11:00,
2013-02-07 20:21:00,39.0,17.0,-100.00,SSW,193,5.0,7.0,40,-99.99,,,-99.99,,2013-02-07 20:21:00,
2013-02-07 20:31:00,39.0,18.0,-100.00,SSE,163,5.0,6.0,42,-99.99,,,-99.99,,2013-02-07 20:31:00,
2013-02-07 20:41:00,38.0,17.0,-100.00,SSE,164,6.0,7.0,41,-99.99,,,-99.99,,2013-02-07 20:41:00,
2013-02-07 20:52:00,39.0,18.0,-100.00,South,185,6.0,7.0,41,-99.99,,,-99.99,,2013-02-07 20:52:00,
2013-02-07 21:01:00,39.0,18.0,-100.00,South,185,6.0,7.0,41,-99.99,,,-99.99,,2013-02-07 21:01:00,
2013-02-07 21:11:00,38.0,17.0,-100.00,South,189,5.0,7.0,42,-99.99,,,-99.99,,2013-02-07 21:11:00,
2013-02-07 21:21:00,40.0,16.0,-100.00,South,174,6.0,8.0,36,-99.99,,,-99.99,,2013-02-07 21:21:00,
2013-02-07 21:31:00,40.0,16.0,-100.00,South,174,6.0,8.0,36,-99.99,,,-99.99,,2013-02-07 21:31:00,
2013-02-07 21:41:00,42.0,16.0,-100.00,SSE,164,5.0,7.0,33,-99.99,,,-99.99,,2013-02-07 21:41:00,
2013-02-07 21:51:00,43.0,14.0,-100.00,SSE,166,6.0,7.0,31,-99.99,,,-99.99,,2013-02-07 21:51:00,
2013-02-07 22:01:00,42.0,15.0,-100.00,South,171,5.0,6.0,33,-99.99,,,-99.99,,2013-02-07 22:01:00,
2013-02-07 22:11:00,42.0,15.0,-100.00,South,171,5.0,6.0,33,-99.99,,,-99.99,,2013-02-07 22:11:00,
2013-02-07 22:21:00,43.0,14.0,-100.00,South,178,5.0,6.0,30,-99.99,,,-99.99,,2013-02-07 22:21:00,
2013-02-07 22:31:00,43.0,16.0,-100.00,South,178,4.0,6.0,33,-99.99,,,-99.99,,2013-02-07 22:31:00,
2013-02-07 22:42:00,43.0,16.0,-100.00,South,178,4.0,6.0,33,-99.99,,,-99.99,,2013-02-07 22:42:00,
2013-02-07 22:51:00,44.0,14.0,-100.00,South,173,5.0,6.0,30,-99.99,,,-99.99,,2013-02-07 22:51:00,
2013-02-07 23:01:00,42.0,16.0,-100.00,SSE,155,5.0,7.0,35,-99.99,,,-99.99,,2013-02-07 23:01:00,
2013-02-07 23:11:00,42.0,16.0,-100.00,SSE,155,5.0,7.0,35,-99.99,,,-99.99,,2013-02-07 23:11:00,
2013-02-07 23:21:00,42.0,16.0,-100.00,SSE,155,5.0,7.0,35,-99.99,,,-99.99,,2013-02-07 23:21:00,
2013-02-07 23:31:00,42.0,16.0,-100.00,SSE,155,5.0,7.0,35,-99.99,,,-99.99,,2013-02-07 23:31:00,
2013-02-07 23:41:00,42.0,15.0,-100.00,SE,146,4.0,5.0,33,-99.99,,,-99.99,,2013-02-07 23:41:00,
2013-02-07 23:52:00,40.0,16.0,-100.00,SE,138,5.0,5.0,37,-99.99,,,-99.99,,2013-02-07 23:52:00,